Time;durP1;ratioP1;P1;durP2;ratioP2;P2;SDS_P1;SDS_P2;PMS_P1;PMS_P2;Temp;Humidity;BMP_temperature;BMP_pressure;BME280_temperature;BME280_humidity;BME280_pressure;Samples;Min_cycle;Max_cycle;Signal;HPM_P1;HPM_P2
2022/05/05 00:00:56;;;;;;;8.13;7.38;;;17.40;99.90;;;;;;5114165;27;20046;-71
2022/05/05 00:03:22;;;;;;;8.57;7.32;;;17.30;99.90;;;;;;5111289;27;20425;-71
2022/05/05 00:05:48;;;;;;;8.40;6.15;;;17.30;99.90;;;;;;5109541;27;20036;-71
2022/05/05 00:08:13;;;;;;;7.13;5.10;;;17.30;99.90;;;;;;5116713;27;20030;-71
2022/05/05 00:16:08;;;;;;;;;;;17.30;99.90;;;;;;5116509;27;20092;-71
2022/05/05 00:18:34;;;;;;;6.40;3.67;;;17.30;99.90;;;;;;5115988;27;19907;-71
2022/05/05 00:20:59;;;;;;;7.88;3.92;;;17.40;99.90;;;;;;5114006;27;20055;-71
2022/05/05 00:23:26;;;;;;;5.75;3.55;;;17.40;99.90;;;;;;5113848;27;20044;-71
2022/05/05 00:25:51;;;;;;;7.78;3.50;;;17.40;99.90;;;;;;5117376;27;20451;-71
2022/05/05 00:28:17;;;;;;;6.78;3.17;;;17.40;99.90;;;;;;5111422;28;20111;-71
2022/05/05 00:30:43;;;;;;;7.30;3.65;;;17.40;99.90;;;;;;5111465;28;20098;-71
2022/05/05 00:33:08;;;;;;;5.68;3.30;;;17.40;99.90;;;;;;5111219;28;20363;-71
2022/05/05 00:35:34;;;;;;;5.00;3.05;;;17.30;99.90;;;;;;5112287;28;20081;-71
2022/05/05 00:38:00;;;;;;;5.22;3.30;;;17.30;99.90;;;;;;5113818;28;20030;-71
2022/05/05 00:40:26;;;;;;;6.10;3.05;;;17.30;99.90;;;;;;5111170;28;20032;-72
2022/05/05 00:42:51;;;;;;;5.45;3.28;;;17.20;99.90;;;;;;5111411;28;20034;-70
2022/05/05 00:45:17;;;;;;;5.40;3.42;;;17.20;99.90;;;;;;5111122;28;20046;-71
2022/05/05 00:47:43;;;;;;;6.38;3.40;;;17.10;99.90;;;;;;5110898;28;20462;-71
2022/05/05 00:50:11;;;;;;;7.40;3.55;;;17.10;99.90;;;;;;5114828;28;20486;-71
2022/05/05 00:52:37;;;;;;;5.65;3.38;;;17.00;99.90;;;;;;5110910;28;20031;-71
2022/05/05 00:55:03;;;;;;;6.80;3.40;;;17.10;99.90;;;;;;5110760;28;20084;-71
2022/05/05 00:57:30;;;;;;;5.75;3.40;;;17.20;99.90;;;;;;5110278;28;20027;-71
2022/05/05 00:59:59;;;;;;;5.85;3.25;;;17.20;99.90;;;;;;5110991;28;20483;-71
2022/05/05 01:02:25;;;;;;;7.15;3.08;;;17.10;99.90;;;;;;5111744;28;20031;-71
2022/05/05 01:04:51;;;;;;;6.55;3.47;;;17.10;99.90;;;;;;5112117;28;20088;-71
2022/05/05 01:07:18;;;;;;;5.13;3.28;;;17.10;99.90;;;;;;5110412;28;20023;-71
2022/05/05 01:09:44;;;;;;;5.03;3.13;;;17.00;99.90;;;;;;5110370;28;20135;-72
2022/05/05 01:12:10;;;;;;;5.38;3.30;;;17.00;99.90;;;;;;5110634;28;20502;-72
2022/05/05 01:14:36;;;;;;;5.50;3.33;;;17.10;99.90;;;;;;5111622;28;20016;-71
2022/05/05 01:17:02;;;;;;;6.63;3.42;;;17.10;99.90;;;;;;5113460;28;20031;-71
2022/05/05 01:19:28;;;;;;;7.68;3.35;;;17.10;99.90;;;;;;5110469;28;20370;-71
2022/05/05 01:21:55;;;;;;;6.22;3.35;;;17.10;99.90;;;;;;5110077;28;20092;-71
2022/05/05 01:29:54;;;;;;;8.68;3.55;;;17.00;99.90;;;;;;5095752;28;20390;-71
2022/05/05 01:32:19;;;;;;;5.43;3.25;;;16.80;99.90;;;;;;5112311;28;20372;-71
2022/05/05 01:34:45;;;;;;;7.63;4.00;;;16.80;99.90;;;;;;5110404;28;20117;-71
2022/05/05 01:37:11;;;;;;;5.75;3.40;;;16.90;99.90;;;;;;5109524;28;20067;-71
2022/05/05 01:39:36;;;;;;;6.88;3.58;;;16.90;99.90;;;;;;5109934;28;20015;-71
2022/05/05 01:42:02;;;;;;;6.43;3.63;;;16.80;99.90;;;;;;5109998;28;20067;-71
2022/05/05 01:44:28;;;;;;;7.22;3.50;;;16.80;99.90;;;;;;5111668;28;20028;-72
2022/05/05 01:46:54;;;;;;;7.05;3.90;;;16.80;99.90;;;;;;5111354;28;20023;-71
2022/05/05 01:49:19;;;;;;;5.78;3.50;;;16.80;99.90;;;;;;5110191;28;20111;-71
2022/05/05 01:51:45;;;;;;;6.38;3.70;;;16.70;99.90;;;;;;5109492;28;20114;-71
2022/05/05 01:54:11;;;;;;;6.32;3.55;;;16.60;99.90;;;;;;5108566;28;20494;-71
2022/05/05 01:56:37;;;;;;;5.88;3.55;;;16.60;99.90;;;;;;5110815;28;20031;-71
2022/05/05 01:59:03;;;;;;;5.95;3.78;;;16.60;99.90;;;;;;5112641;28;20048;-72
2022/05/05 02:01:29;;;;;;;7.82;3.75;;;16.60;99.90;;;;;;5111131;28;20035;-71
2022/05/05 02:03:54;;;;;;;6.22;3.55;;;16.60;99.90;;;;;;5109131;28;20057;-72
2022/05/05 02:06:20;;;;;;;5.88;3.50;;;16.50;99.90;;;;;;5108934;28;20030;-71
2022/05/05 02:08:46;;;;;;;5.53;3.55;;;16.50;99.90;;;;;;5109473;28;20394;-72
2022/05/05 02:11:12;;;;;;;8.52;3.90;;;16.60;99.90;;;;;;5112461;28;20058;-71
2022/05/05 02:13:38;;;;;;;6.13;3.92;;;16.60;99.90;;;;;;5110973;28;20069;-71
2022/05/05 02:16:04;;;;;;;7.18;4.13;;;16.60;99.90;;;;;;5110274;28;20062;-72
2022/05/05 02:18:31;;;;;;;8.27;3.90;;;16.60;99.90;;;;;;5110504;28;20024;-71
2022/05/05 02:20:57;;;;;;;6.80;4.10;;;16.50;99.90;;;;;;5108720;28;20566;-72
2022/05/05 02:23:23;;;;;;;7.78;4.28;;;16.60;99.90;;;;;;5111231;28;20040;-71
2022/05/05 02:25:48;;;;;;;8.35;4.20;;;16.50;99.90;;;;;;5110491;28;20028;-72
2022/05/05 02:28:14;;;;;;;7.43;4.50;;;16.50;99.90;;;;;;5109044;28;20031;-71
2022/05/05 02:30:40;;;;;;;6.13;4.03;;;16.50;99.90;;;;;;5109055;28;20129;-71
2022/05/05 02:33:06;;;;;;;7.65;3.65;;;16.50;99.90;;;;;;5109068;28;20019;-72
2022/05/05 02:35:32;;;;;;;5.13;3.13;;;16.40;99.90;;;;;;5110259;28;20038;-72
2022/05/05 02:40:42;;;;;;;;;;;16.40;99.90;;;;;;5110497;28;20050;-71
2022/05/05 02:43:08;;;;;;;5.10;3.08;;;16.40;99.90;;;;;;5108768;28;19916;-72
2022/05/05 02:45:34;;;;;;;5.70;2.90;;;16.30;99.90;;;;;;5108893;28;20036;-71
2022/05/05 02:48:00;;;;;;;4.93;3.10;;;16.30;99.90;;;;;;5108549;28;20019;-72
2022/05/05 02:50:26;;;;;;;5.40;3.22;;;16.40;99.90;;;;;;5111244;28;20039;-72
2022/05/05 02:52:56;;;;;;;6.35;3.28;;;16.40;99.90;;;;;;5110179;28;20032;-71
2022/05/05 02:55:23;;;;;;;5.57;2.90;;;16.30;99.90;;;;;;5108783;28;20055;-71
2022/05/05 02:57:48;;;;;;;5.43;2.97;;;16.30;99.90;;;;;;5108892;28;20073;-72
2022/05/05 03:00:15;;;;;;;6.85;3.33;;;16.20;99.90;;;;;;5108628;28;20023;-71
2022/05/05 03:02:42;;;;;;;6.80;3.38;;;16.10;99.90;;;;;;5092916;28;20024;-72
2022/05/05 03:05:09;;;;;;;5.28;3.13;;;16.10;99.90;;;;;;5107725;28;20057;-71
2022/05/05 03:07:35;;;;;;;6.78;3.10;;;16.00;99.90;;;;;;5108617;28;20019;-71
2022/05/05 03:10:01;;;;;;;6.05;2.83;;;16.10;99.90;;;;;;5108974;28;20035;-71
2022/05/05 03:12:27;;;;;;;6.60;3.22;;;16.00;99.90;;;;;;5108646;28;20565;-72
2022/05/05 03:14:53;;;;;;;5.50;3.10;;;16.00;99.90;;;;;;5107336;28;20077;-72
2022/05/05 03:17:19;;;;;;;5.57;3.30;;;16.00;99.90;;;;;;5110963;28;20028;-71
2022/05/05 03:19:45;;;;;;;4.47;3.13;;;16.00;99.90;;;;;;5110934;28;20023;-72
2022/05/05 03:22:11;;;;;;;5.50;3.50;;;15.90;99.90;;;;;;5108435;28;20043;-71
2022/05/05 03:24:36;;;;;;;6.95;6.28;;;16.10;99.90;;;;;;5108311;28;20035;-71
2022/05/05 03:27:04;;;;;;;10.90;9.82;;;16.10;99.90;;;;;;5110084;28;20020;-71
2022/05/05 03:29:32;;;;;;;8.65;7.72;;;16.10;99.90;;;;;;5110250;28;20023;-71
2022/05/05 03:31:58;;;;;;;6.20;5.60;;;16.10;99.90;;;;;;5110308;28;20055;-72
2022/05/05 03:34:24;;;;;;;6.47;4.35;;;16.10;99.90;;;;;;5108155;28;20027;-71
2022/05/05 03:36:49;;;;;;;5.82;3.70;;;16.10;99.90;;;;;;5108252;28;20024;-71
2022/05/05 03:39:15;;;;;;;7.18;3.80;;;16.00;99.90;;;;;;5107144;28;20026;-71
2022/05/05 03:41:41;;;;;;;6.30;3.47;;;16.00;99.90;;;;;;5092866;28;20027;-71
2022/05/05 03:44:07;;;;;;;5.88;3.17;;;16.00;99.90;;;;;;5111700;28;20032;-71
2022/05/05 03:46:33;;;;;;;5.80;3.58;;;16.00;99.90;;;;;;5107904;28;20024;-71
2022/05/05 03:48:59;;;;;;;7.07;3.30;;;16.00;99.90;;;;;;5108179;28;20502;-71
2022/05/05 03:51:25;;;;;;;7.65;3.35;;;16.00;99.90;;;;;;5108357;28;20045;-72
2022/05/05 03:53:52;;;;;;;5.10;3.25;;;16.00;99.90;;;;;;5108047;28;20028;-71
2022/05/05 03:56:18;;;;;;;5.40;3.30;;;16.00;99.90;;;;;;5110914;28;20394;-72
2022/05/05 03:58:44;;;;;;;5.50;3.30;;;16.00;99.90;;;;;;5112678;28;20020;-71
2022/05/05 04:01:10;;;;;;;8.02;3.30;;;16.00;99.90;;;;;;5111552;28;20036;-73
2022/05/05 04:03:41;;;;;;;7.38;3.22;;;16.10;99.90;;;;;;5111441;28;20042;-72
2022/05/05 04:06:07;;;;;;;4.80;3.13;;;16.00;99.90;;;;;;5111933;28;20031;-71
2022/05/05 04:08:34;;;;;;;5.43;2.83;;;16.10;99.90;;;;;;5113325;28;20625;-73
2022/05/05 04:11:00;;;;;;;5.28;3.30;;;16.10;99.90;;;;;;5114333;28;20027;-71
2022/05/05 04:13:26;;;;;;;5.50;3.40;;;16.10;99.90;;;;;;5111559;28;20088;-72
2022/05/05 04:15:53;;;;;;;6.75;3.47;;;16.10;99.90;;;;;;5111304;28;20023;-72
2022/05/05 04:18:19;;;;;;;5.70;3.42;;;16.10;99.90;;;;;;5110177;28;20316;-71
2022/05/05 04:20:47;;;;;;;5.60;3.20;;;16.00;99.90;;;;;;5111440;28;20046;-72
2022/05/05 04:23:13;;;;;;;5.72;3.22;;;15.90;99.90;;;;;;5110884;28;20031;-71
2022/05/05 04:25:43;;;;;;;5.57;3.22;;;15.90;99.90;;;;;;5113413;28;20145;-72
2022/05/05 04:28:12;;;;;;;6.95;3.40;;;15.80;99.90;;;;;;5111037;28;20048;-71
2022/05/05 04:30:39;;;;;;;6.15;3.33;;;15.90;99.90;;;;;;5111349;28;20471;-72
2022/05/05 04:33:06;;;;;;;5.85;3.53;;;15.90;99.90;;;;;;5111126;28;20035;-71
2022/05/05 04:35:32;;;;;;;5.10;3.53;;;15.80;99.90;;;;;;5113149;27;20498;-71
2022/05/05 04:37:58;;;;;;;8.35;6.43;;;15.80;99.90;;;;;;5113446;28;20185;-72
2022/05/05 04:40:23;;;;;;;8.85;5.63;;;15.90;99.90;;;;;;5111027;28;20119;-72
2022/05/05 04:42:49;;;;;;;6.57;3.90;;;16.00;99.90;;;;;;5111009;28;20099;-71
2022/05/05 04:45:15;;;;;;;6.78;3.38;;;16.00;99.90;;;;;;5110504;28;20449;-71
2022/05/05 04:47:42;;;;;;;7.85;3.42;;;16.00;99.90;;;;;;5099743;28;20019;-72
2022/05/05 04:50:08;;;;;;;6.28;3.58;;;16.00;99.90;;;;;;5114615;28;20035;-71
2022/05/05 04:52:34;;;;;;;6.72;3.45;;;16.00;99.90;;;;;;5110875;28;20080;-71
2022/05/05 04:55:00;;;;;;;6.70;3.70;;;16.00;99.90;;;;;;5111031;28;20118;-71
2022/05/05 04:57:26;;;;;;;7.03;3.75;;;16.00;99.90;;;;;;5110786;28;20058;-72
2022/05/05 04:59:53;;;;;;;6.70;3.85;;;16.00;99.90;;;;;;5110469;28;20032;-71
2022/05/05 05:02:19;;;;;;;6.03;3.72;;;16.00;99.90;;;;;;5113034;28;20149;-72
2022/05/05 05:04:45;;;;;;;7.75;4.00;;;15.90;99.90;;;;;;5112124;28;20036;-71
2022/05/05 05:07:11;;;;;;;7.22;4.00;;;15.80;99.90;;;;;;5112810;28;20034;-71
2022/05/05 05:09:36;;;;;;;5.97;3.78;;;15.80;99.90;;;;;;5108579;28;20509;-71
2022/05/05 05:12:02;;;;;;;7.07;3.90;;;15.80;99.90;;;;;;5110907;27;20441;-71
2022/05/05 05:14:28;;;;;;;6.88;3.80;;;15.80;99.90;;;;;;5112078;28;20024;-72
2022/05/05 05:16:54;;;;;;;6.60;3.60;;;15.80;99.90;;;;;;5111886;28;20031;-72
2022/05/05 05:19:20;;;;;;;6.75;3.50;;;15.80;99.90;;;;;;5109267;28;20036;-71
2022/05/05 05:21:46;;;;;;;5.82;3.70;;;15.90;99.90;;;;;;5109821;28;20047;-70
2022/05/05 05:24:12;;;;;;;6.68;3.75;;;16.00;99.90;;;;;;5109258;28;20217;-71
2022/05/05 05:26:38;;;;;;;6.03;3.97;;;16.00;99.90;;;;;;5106680;28;20016;-71
2022/05/05 05:29:04;;;;;;;6.32;3.95;;;16.00;99.90;;;;;;5112989;28;20427;-71
2022/05/05 05:31:30;;;;;;;7.10;3.75;;;16.00;99.90;;;;;;5109906;28;20058;-72
2022/05/05 05:33:55;;;;;;;5.72;3.70;;;16.10;99.90;;;;;;5110353;28;20111;-70
2022/05/05 05:36:21;;;;;;;7.38;3.88;;;16.20;99.90;;;;;;5108672;28;20050;-71
2022/05/05 05:38:47;;;;;;;6.38;3.92;;;16.20;99.90;;;;;;5110021;28;20493;-70
2022/05/05 05:41:13;;;;;;;7.57;3.70;;;16.20;99.90;;;;;;5113198;28;20028;-72
2022/05/05 05:43:39;;;;;;;5.70;3.85;;;16.10;99.90;;;;;;5109816;28;20036;-71
2022/05/05 05:46:04;;;;;;;6.57;4.13;;;16.20;99.90;;;;;;5109672;28;20110;-72
2022/05/05 05:48:31;;;;;;;6.78;3.88;;;16.20;99.90;;;;;;5108326;28;20115;-72
2022/05/05 05:50:56;;;;;;;8.63;4.32;;;16.20;99.90;;;;;;5109702;28;20043;-72
2022/05/05 05:53:22;;;;;;;7.47;3.83;;;16.20;99.90;;;;;;5112233;28;20023;-71
2022/05/05 05:55:48;;;;;;;6.28;4.07;;;16.20;99.90;;;;;;5110897;28;20394;-72
2022/05/05 05:58:14;;;;;;;6.25;3.67;;;16.30;99.90;;;;;;5108812;28;20486;-72
2022/05/05 06:00:39;;;;;;;6.30;4.10;;;16.40;99.90;;;;;;5108079;28;20502;-72
2022/05/05 06:05:50;;;;;;;6.60;4.13;;;16.50;99.90;;;;;;5094842;28;20074;-72
2022/05/05 06:08:16;;;;;;;7.85;4.43;;;16.60;99.90;;;;;;5112251;28;20054;-72
2022/05/05 06:10:42;;;;;;;6.82;3.97;;;16.60;99.90;;;;;;5110167;28;20039;-72
2022/05/05 06:13:08;;;;;;;6.57;3.95;;;16.40;99.90;;;;;;5107698;28;20053;-72
2022/05/05 06:15:34;;;;;;;5.72;3.30;;;16.40;99.90;;;;;;5109501;28;20039;-72
2022/05/05 06:17:59;;;;;;;6.40;3.40;;;16.30;99.90;;;;;;5109364;28;20092;-72
2022/05/05 06:20:25;;;;;;;5.38;3.47;;;16.30;99.90;;;;;;5102994;28;20054;-73
2022/05/05 06:22:51;;;;;;;6.47;3.50;;;16.20;99.90;;;;;;5110071;28;20031;-72
2022/05/05 06:25:20;;;;;;;7.47;3.95;;;16.20;99.90;;;;;;5108576;28;20043;-72
2022/05/05 06:27:47;;;;;;;7.65;3.70;;;16.20;99.90;;;;;;5108120;28;20023;-72
2022/05/05 06:30:13;;;;;;;8.07;3.58;;;16.20;99.90;;;;;;5108839;28;20027;-73
2022/05/05 06:32:42;;;;;;;5.90;3.80;;;16.10;99.90;;;;;;5109264;28;20028;-73
2022/05/05 06:35:09;;;;;;;7.13;3.38;;;16.10;99.90;;;;;;5111685;28;20031;-73
2022/05/05 06:37:36;;;;;;;7.70;4.07;;;16.30;99.90;;;;;;5106543;28;20509;-72
2022/05/05 06:40:03;;;;;;;11.95;4.15;;;16.30;99.90;;;;;;5108312;28;20035;-72
2022/05/05 06:42:29;;;;;;;7.68;4.13;;;16.40;99.90;;;;;;5107863;28;20020;-73
2022/05/05 06:44:55;;;;;;;7.95;3.67;;;16.50;99.90;;;;;;5108035;28;20418;-72
2022/05/05 06:47:21;;;;;;;6.68;4.03;;;16.60;99.90;;;;;;5110309;28;20061;-73
2022/05/05 06:49:46;;;;;;;6.65;3.78;;;16.70;99.90;;;;;;5108729;28;20031;-72
2022/05/05 06:52:12;;;;;;;6.53;4.18;;;16.70;99.90;;;;;;5108376;28;20107;-73
2022/05/05 06:54:38;;;;;;;7.43;3.90;;;16.80;99.90;;;;;;5107800;28;20448;-73
2022/05/05 06:57:05;;;;;;;6.57;3.88;;;17.00;99.90;;;;;;5108296;28;20073;-73
2022/05/05 06:59:31;;;;;;;9.20;3.90;;;17.10;99.90;;;;;;5109817;28;20028;-73
2022/05/05 07:02:02;;;;;;;7.47;3.63;;;17.10;99.90;;;;;;5109919;28;20039;-71
2022/05/05 07:07:15;;;;;;;9.38;3.67;;;17.40;99.90;;;;;;5108204;28;20042;-72
2022/05/05 07:12:28;;;;;;;6.55;3.92;;;17.70;99.90;;;;;;5109696;28;20023;-73
2022/05/05 07:14:54;;;;;;;7.80;3.67;;;17.70;99.90;;;;;;5109054;28;20113;-73
2022/05/05 07:17:21;;;;;;;6.80;3.47;;;17.80;99.90;;;;;;5108283;28;20027;-73
2022/05/05 07:19:47;;;;;;;8.18;3.38;;;17.90;99.90;;;;;;5106685;28;20020;-72
2022/05/05 07:22:13;;;;;;;5.68;3.10;;;18.00;99.90;;;;;;5102709;28;20046;-73
2022/05/05 07:24:38;;;;;;;7.70;3.10;;;18.10;99.90;;;;;;5102935;28;20032;-73
2022/05/05 07:27:05;;;;;;;4.80;2.95;;;18.00;99.90;;;;;;5104343;28;20028;-73
2022/05/05 07:29:32;;;;;;;6.68;3.05;;;18.10;99.90;;;;;;5106156;28;20539;-74
2022/05/05 07:31:58;;;;;;;7.32;3.22;;;18.10;99.90;;;;;;5107673;28;20031;-73
2022/05/05 07:34:24;;;;;;;7.38;3.15;;;18.10;99.90;;;;;;5106500;28;20115;-72
2022/05/05 07:36:50;;;;;;;7.00;3.08;;;18.10;99.90;;;;;;5107187;28;20110;-74
2022/05/05 07:39:16;;;;;;;6.40;2.92;;;17.90;99.90;;;;;;5109461;28;20019;-73
2022/05/05 07:41:42;;;;;;;6.60;3.55;;;17.90;99.90;;;;;;5103917;28;20110;-72
2022/05/05 07:44:08;;;;;;;6.13;3.40;;;18.10;99.90;;;;;;5091481;28;20042;-73
2022/05/05 07:46:35;;;;;;;6.13;3.15;;;18.20;99.90;;;;;;5111595;28;20043;-72
2022/05/05 07:49:04;;;;;;;9.20;3.58;;;18.00;99.90;;;;;;5111899;28;20033;-72
2022/05/05 07:51:30;;;;;;;5.65;3.10;;;18.10;99.90;;;;;;5109147;28;20019;-73
2022/05/05 07:56:42;;;;;;;5.43;3.20;;;18.10;99.90;;;;;;5112274;28;20356;-80
2022/05/05 07:59:08;;;;;;;5.38;2.97;;;18.00;99.90;;;;;;5113845;28;20465;-74
2022/05/05 08:01:33;;;;;;;6.75;3.00;;;18.00;99.90;;;;;;5110960;28;20035;-72
2022/05/05 08:03:59;;;;;;;8.23;3.30;;;17.90;99.90;;;;;;5110855;28;20028;-73
2022/05/05 08:06:25;;;;;;;5.25;3.03;;;18.00;99.90;;;;;;5110763;28;20023;-72
2022/05/05 08:08:50;;;;;;;6.97;3.45;;;18.00;99.90;;;;;;5112488;28;20020;-72
2022/05/05 08:11:16;;;;;;;7.00;3.95;;;17.90;99.90;;;;;;5114539;28;20100;-73
2022/05/05 08:13:42;;;;;;;5.90;3.90;;;18.00;99.90;;;;;;5111908;28;20432;-72
2022/05/05 08:16:08;;;;;;;5.63;3.65;;;17.90;99.90;;;;;;5111287;28;20114;-72
2022/05/05 08:18:33;;;;;;;6.00;3.67;;;18.00;99.90;;;;;;5112467;28;20375;-73
2022/05/05 08:20:59;;;;;;;6.22;3.20;;;18.20;99.90;;;;;;5112159;28;20051;-73
2022/05/05 08:23:25;;;;;;;5.93;3.67;;;18.30;99.90;;;;;;5112933;28;20062;-72
2022/05/05 08:28:36;;;;;;;6.07;4.32;;;18.90;99.90;;;;;;5110925;28;20411;-73
2022/05/05 08:31:05;;;;;;;6.30;3.97;;;19.20;99.90;;;;;;5113052;28;20122;-73
2022/05/05 08:33:30;;;;;;;7.00;4.47;;;19.50;99.90;;;;;;5110789;28;20023;-74
2022/05/05 08:35:59;;;;;;;9.20;5.47;;;19.70;99.90;;;;;;5112590;28;20026;-73
2022/05/05 08:38:26;;;;;;;9.43;4.93;;;19.60;99.90;;;;;;5110864;28;20023;-73
2022/05/05 08:40:51;;;;;;;7.03;4.20;;;19.80;99.90;;;;;;5111177;28;20472;-74
2022/05/05 08:43:18;;;;;;;7.88;4.28;;;20.20;99.90;;;;;;5110346;28;20083;-73
2022/05/05 08:45:47;;;;;;;5.90;4.47;;;20.50;99.90;;;;;;5110625;28;20406;-73
2022/05/05 08:48:13;;;;;;;6.53;4.13;;;20.50;99.90;;;;;;5109343;28;20515;-73
2022/05/05 08:50:41;;;;;;;8.32;4.95;;;20.40;99.90;;;;;;5111151;28;20398;-73
2022/05/05 08:53:07;;;;;;;7.35;5.18;;;20.40;99.90;;;;;;5105589;28;20051;-74
2022/05/05 08:55:34;;;;;;;7.82;4.95;;;20.40;99.90;;;;;;5104421;28;20047;-73
2022/05/05 08:58:01;;;;;;;6.15;3.88;;;20.40;99.90;;;;;;5106759;28;20032;-73
2022/05/05 09:00:27;;;;;;;7.53;4.18;;;20.30;99.40;;;;;;5105382;28;20043;-74
2022/05/05 09:03:04;;;;;;;9.13;4.60;;;20.30;99.60;;;;;;5091914;28;20055;-73
2022/05/05 09:05:42;;;;;;;9.23;4.55;;;20.50;99.40;;;;;;5106131;28;20127;-74
2022/05/05 09:08:11;;;;;;;7.15;3.80;;;20.80;98.50;;;;;;5110149;28;20521;-73
2022/05/05 09:10:45;;;;;;;5.30;3.50;;;21.20;97.00;;;;;;5105636;27;20020;-73
2022/05/05 09:13:11;;;;;;;11.10;3.55;;;21.20;94.60;;;;;;5099257;28;20510;-74
2022/05/05 09:15:40;;;;;;;12.63;3.75;;;21.10;94.40;;;;;;5098607;28;20027;-73
2022/05/05 09:18:21;;;;;;;7.10;3.92;;;21.00;95.20;;;;;;5105908;28;20402;-73
2022/05/05 09:20:49;;;;;;;7.78;3.92;;;21.20;94.50;;;;;;5100567;28;21333;-73
2022/05/05 09:24:34;;;;;;;7.13;4.82;;;21.40;95.10;;;;;;5099005;28;20082;-73
2022/05/05 09:26:26;;;;;;;10.13;4.78;;;21.30;94.80;;;;;;5107031;28;20055;-74
2022/05/05 09:28:52;;;;;;;8.40;4.65;;;21.20;94.20;;;;;;5100011;28;20030;-73
2022/05/05 09:31:18;;;;;;;9.63;5.03;;;21.10;93.10;;;;;;5097808;28;20028;-74
2022/05/05 09:33:44;;;;;;;8.35;4.78;;;21.30;92.30;;;;;;5095271;28;20401;-73
2022/05/05 09:36:13;;;;;;;8.63;4.70;;;21.50;93.60;;;;;;5105423;28;20042;-74
2022/05/05 09:38:54;;;;;;;8.98;5.05;;;21.50;92.40;;;;;;5102561;27;20402;-74
2022/05/05 09:41:24;;;;;;;8.38;4.70;;;21.60;92.30;;;;;;5108406;28;20111;-74
2022/05/05 09:43:53;;;;;;;7.47;4.35;;;21.80;91.60;;;;;;5106788;28;20138;-74
2022/05/05 09:46:40;;;;;;;7.30;4.20;;;21.70;91.50;;;;;;5099812;28;20111;-73
2022/05/05 09:49:14;;;;;;;7.03;4.28;;;21.80;91.30;;;;;;5101413;28;20375;-71
2022/05/05 09:57:40;;;;;;;8.95;5.10;;;22.10;91.30;;;;;;5109572;28;20544;-72
2022/05/05 10:00:23;;;;;;;8.75;5.43;;;22.20;90.80;;;;;;5107907;28;20027;-72
2022/05/05 10:05:37;;;;;;;7.82;5.28;;;22.00;90.90;;;;;;5108028;28;20545;-72
2022/05/05 10:08:03;;;;;;;8.13;4.80;;;22.40;90.40;;;;;;5109720;28;20020;-72
2022/05/05 10:10:30;;;;;;;9.10;5.43;;;22.30;90.10;;;;;;5099086;28;20387;-74
2022/05/05 10:12:57;;;;;;;7.47;5.60;;;22.40;91.20;;;;;;5107739;27;20491;-72
2022/05/05 10:15:24;;;;;;;11.32;5.47;;;22.30;90.20;;;;;;5124475;27;20107;-73
2022/05/05 10:17:51;;;;;;;8.88;6.05;;;22.10;90.60;;;;;;5108407;28;20032;-73
2022/05/05 10:20:17;;;;;;;10.35;5.97;;;22.20;90.20;;;;;;5111618;28;20036;-73
2022/05/05 10:22:59;;;;;;;9.52;5.85;;;22.30;89.70;;;;;;5108940;28;20065;-73
2022/05/05 10:25:26;;;;;;;13.05;7.90;;;22.60;90.50;;;;;;5108473;28;20046;-73
2022/05/05 10:27:54;;;;;;;10.90;7.20;;;22.60;88.00;;;;;;5110070;28;20028;-73
2022/05/05 10:30:38;;;;;;;10.27;5.95;;;22.80;88.50;;;;;;5109985;28;20039;-72
2022/05/05 10:33:08;;;;;;;8.70;5.47;;;22.90;86.70;;;;;;5107363;28;20551;-73
2022/05/05 10:35:40;;;;;;;11.13;5.45;;;23.00;86.30;;;;;;5109456;28;20067;-72
2022/05/05 10:38:42;;;;;;;9.40;6.10;;;22.90;82.60;;;;;;5110719;28;20565;-73
2022/05/05 10:41:36;;;;;;;7.93;5.00;;;22.50;83.90;;;;;;5102290;28;20697;-73
2022/05/05 10:44:28;;;;;;;11.25;5.97;;;22.50;86.30;;;;;;5109178;28;20047;-73
2022/05/05 10:47:04;;;;;;;8.52;5.75;;;22.60;84.90;;;;;;5107083;28;20060;-72
2022/05/05 10:49:42;;;;;;;9.05;6.15;;;22.50;85.20;;;;;;5107983;28;20125;-73
2022/05/05 10:52:16;;;;;;;8.60;4.95;;;22.60;84.30;;;;;;5107903;28;20034;-71
2022/05/05 10:54:53;;;;;;;11.18;5.65;;;22.70;85.00;;;;;;5107800;28;20020;-71
2022/05/05 10:57:25;;;;;;;8.98;5.00;;;22.80;82.70;;;;;;5107743;28;20729;-72
2022/05/05 11:00:09;;;;;;;9.50;5.75;;;22.90;81.60;;;;;;5108830;28;20038;-72
2022/05/05 11:02:36;;;;;;;9.55;5.85;;;23.10;80.30;;;;;;5109128;28;20024;-74
2022/05/05 11:05:20;;;;;;;9.15;5.65;;;23.20;79.60;;;;;;5110136;28;20401;-70
2022/05/05 11:07:49;;;;;;;8.77;6.15;;;23.40;81.30;;;;;;5110977;28;20498;-70
2022/05/05 11:10:37;;;;;;;9.55;6.07;;;23.50;80.00;;;;;;5111937;28;20065;-70
2022/05/05 11:13:02;;;;;;;10.60;6.25;;;23.60;78.20;;;;;;5112376;28;20089;-71
2022/05/05 11:24:09;;;;;;;8.85;6.05;;;23.50;75.70;;;;;;5068309;28;20056;-72
2022/05/05 11:26:35;;;;;;;8.48;5.30;;;23.40;76.20;;;;;;5069177;28;20111;-71
2022/05/05 11:29:01;;;;;;;8.38;5.20;;;23.30;73.40;;;;;;5069374;28;20489;-71
2022/05/05 11:31:29;;;;;;;8.13;4.70;;;23.10;73.70;;;;;;5067320;28;20756;-72
2022/05/05 11:34:03;;;;;;;9.40;4.88;;;23.10;75.40;;;;;;5065953;28;20125;-72
2022/05/05 11:36:34;;;;;;;8.85;4.78;;;23.30;73.70;;;;;;5065997;28;20445;-71
2022/05/05 11:39:00;;;;;;;8.07;4.53;;;23.20;73.30;;;;;;5067037;28;20048;-71
2022/05/05 11:41:26;;;;;;;6.30;4.30;;;23.40;71.70;;;;;;5070281;28;20028;-71
2022/05/05 11:46:38;;;;;;;7.93;4.18;;;23.50;71.40;;;;;;5066869;28;20054;-69
2022/05/05 11:49:04;;;;;;;8.35;3.83;;;23.50;71.80;;;;;;5064414;28;20029;-70
2022/05/05 11:51:32;;;;;;;7.57;4.20;;;23.40;73.90;;;;;;5066748;28;20596;-72
2022/05/05 11:54:07;;;;;;;9.43;4.10;;;23.60;74.20;;;;;;5056978;28;20040;-72
2022/05/05 11:56:42;;;;;;;10.65;4.05;;;23.50;71.80;;;;;;5068797;28;20020;-72
2022/05/05 12:02:19;;;;;;;8.40;4.10;;;23.40;70.50;;;;;;5092254;28;20588;-72
2022/05/05 12:04:58;;;;;;;7.35;3.95;;;23.40;72.90;;;;;;5100260;28;20149;-72
2022/05/05 12:07:25;;;;;;;7.80;3.88;;;23.50;73.00;;;;;;5109628;28;20528;-71
2022/05/05 12:09:56;;;;;;;8.70;3.60;;;23.50;71.50;;;;;;5104744;28;20031;-71
2022/05/05 12:12:22;;;;;;;6.63;3.47;;;23.70;72.60;;;;;;5101371;28;20027;-71
2022/05/05 12:14:51;;;;;;;7.75;3.60;;;24.00;70.60;;;;;;5110465;28;20024;-71
2022/05/05 12:17:21;;;;;;;9.00;3.55;;;23.90;69.30;;;;;;5110750;28;20486;-71
2022/05/05 12:19:56;;;;;;;8.55;4.15;;;24.10;71.40;;;;;;5111459;28;20437;-71
2022/05/05 12:22:33;;;;;;;8.98;3.60;;;24.30;68.90;;;;;;5107623;28;20571;-71
2022/05/05 12:25:14;;;;;;;11.18;4.30;;;24.50;66.40;;;;;;5106373;28;20040;-71
2022/05/05 12:27:44;;;;;;;8.05;3.47;;;24.20;65.50;;;;;;5106409;28;20024;-71
2022/05/05 12:30:12;;;;;;;7.75;3.20;;;24.40;65.80;;;;;;5095501;28;20414;-72
2022/05/05 12:32:50;;;;;;;6.60;3.30;;;24.40;64.80;;;;;;5109807;28;20032;-71
2022/05/05 12:35:27;;;;;;;6.32;3.30;;;24.20;66.80;;;;;;5110816;28;20126;-71
2022/05/05 12:38:00;;;;;;;6.82;3.15;;;24.00;66.50;;;;;;5108811;28;20062;-71
2022/05/05 12:40:27;;;;;;;7.90;3.65;;;23.50;66.40;;;;;;5107969;28;20059;-73
2022/05/05 12:43:07;;;;;;;7.00;3.20;;;23.30;65.30;;;;;;5099823;28;20418;-72
2022/05/05 12:45:34;;;;;;;8.02;3.40;;;23.10;65.90;;;;;;5098210;28;20044;-73
2022/05/05 12:48:06;;;;;;;9.25;3.75;;;22.90;66.70;;;;;;5096860;28;20028;-72
2022/05/05 12:50:41;;;;;;;5.28;3.20;;;23.00;68.50;;;;;;5093985;28;20731;-72
2022/05/05 13:01:49;;;;;;;6.40;3.67;;;23.60;65.50;;;;;;5111072;28;20106;-72
2022/05/05 13:04:17;;;;;;;;;;;24.00;66.50;;;;;;5109249;28;20485;-72
2022/05/05 13:06:45;;;;;;;6.28;3.13;;;24.10;64.20;;;;;;5108057;28;19951;-72
2022/05/05 13:09:11;;;;;;;8.25;3.85;;;24.00;64.20;;;;;;5108769;28;20076;-72
2022/05/05 13:11:40;;;;;;;9.82;3.70;;;23.90;63.70;;;;;;5093965;28;20035;-72
2022/05/05 13:14:06;;;;;;;9.30;3.50;;;24.20;64.70;;;;;;5108390;28;20490;-72
2022/05/05 13:16:32;;;;;;;8.85;3.10;;;24.40;64.90;;;;;;5107777;28;20031;-72
2022/05/05 13:18:59;;;;;;;6.93;3.38;;;24.30;63.30;;;;;;5105626;28;20024;-72
2022/05/05 13:21:27;;;;;;;7.10;3.33;;;24.00;64.40;;;;;;5106189;28;20036;-72
2022/05/05 13:23:53;;;;;;;6.75;3.08;;;23.70;63.20;;;;;;5109373;27;20505;-72
2022/05/05 13:26:19;;;;;;;9.70;3.50;;;23.30;62.80;;;;;;5095280;28;20100;-73
2022/05/05 13:28:45;;;;;;;5.57;2.80;;;23.20;63.40;;;;;;5097857;28;20131;-72
2022/05/05 13:31:10;;;;;;;10.10;3.30;;;22.90;63.20;;;;;;5096060;28;20560;-72
2022/05/05 13:33:36;;;;;;;7.10;3.30;;;22.60;64.30;;;;;;5096295;28;20032;-73
2022/05/05 13:36:02;;;;;;;7.30;3.40;;;22.60;63.60;;;;;;5092492;28;20197;-72
2022/05/05 13:38:28;;;;;;;6.88;3.00;;;23.10;63.70;;;;;;5108043;28;20019;-72
2022/05/05 13:40:56;;;;;;;5.45;2.90;;;23.60;63.30;;;;;;5095737;28;20417;-72
2022/05/05 13:43:22;;;;;;;5.00;3.00;;;23.90;61.90;;;;;;5095314;28;20035;-72
2022/05/05 13:45:48;;;;;;;7.35;3.15;;;24.10;61.00;;;;;;5095194;28;20027;-72
2022/05/05 13:48:14;;;;;;;6.63;2.95;;;24.30;61.70;;;;;;5095728;28;20600;-72
2022/05/05 13:50:40;;;;;;;7.45;2.65;;;24.20;60.90;;;;;;5092063;28;20037;-73